createdAt,value
2017-11-21T00:00:15.538Z,5.43
2017-11-21T00:01:15.633Z,5.4
2017-11-21T00:02:15.544Z,5.39
2017-11-21T00:03:15.575Z,5.39
2017-11-21T00:04:15.604Z,5.42
2017-11-21T00:05:30.268Z,5.42
2017-11-21T00:06:15.352Z,5.38
2017-11-21T00:07:15.726Z,5.38
2017-11-21T00:08:15.650Z,5.39
2017-11-21T00:09:15.675Z,5.28
2017-11-21T00:10:15.693Z,5.33
2017-11-21T00:11:15.708Z,5.4
2017-11-21T00:12:15.722Z,5.31
2017-11-21T00:13:15.740Z,5.39
2017-11-21T00:14:15.748Z,5.31
2017-11-21T00:15:15.778Z,5.4
2017-11-21T00:16:15.779Z,5.4
2017-11-21T00:17:15.800Z,5.35
2017-11-21T00:18:15.828Z,5.33
2017-11-21T00:19:15.838Z,5.38
2017-11-21T00:20:15.847Z,5.35
2017-11-21T00:21:30.519Z,5.31
2017-11-21T00:22:15.886Z,5.31
2017-11-21T00:23:15.887Z,5.33
2017-11-21T00:24:15.927Z,5.35
2017-11-21T00:25:15.908Z,5.35
2017-11-21T00:27:15.949Z,5.36
2017-11-21T00:28:30.641Z,5.35
2017-11-21T00:29:15.987Z,5.3
2017-11-21T00:30:16.005Z,5.3
2017-11-21T00:31:16.033Z,5.33
2017-11-21T00:32:16.028Z,5.21
2017-11-21T00:33:16.059Z,5.35
2017-11-21T00:34:30.749Z,5.33
2017-11-21T00:35:16.112Z,5.33
2017-11-21T00:36:16.089Z,5.24
2017-11-21T00:37:30.782Z,5.35
2017-11-21T00:38:16.148Z,5.31
2017-11-21T00:39:16.161Z,5.24
2017-11-21T00:40:16.195Z,5.21
2017-11-21T00:41:30.848Z,5.24
2017-11-21T00:42:15.956Z,5.27
2017-11-21T00:43:16.235Z,5.24
2017-11-21T00:45:16.265Z,5.24
2017-11-21T00:46:16.269Z,5.27
2017-11-21T00:47:16.305Z,5.27
2017-11-21T00:48:16.322Z,5.27
2017-11-21T00:49:30.971Z,5.31
2017-11-21T00:50:16.335Z,5.28
2017-11-21T00:51:16.372Z,5.36
2017-11-21T00:52:31.033Z,5.25
2017-11-21T00:53:16.406Z,5.27
2017-11-21T00:54:16.416Z,5.36
2017-11-21T00:55:16.423Z,5.38
2017-11-21T00:56:16.451Z,5.35
2017-11-21T00:57:16.451Z,5.38
2017-11-21T00:58:16.471Z,5.38
2017-11-21T00:59:16.465Z,5.39
2017-11-21T01:00:16.254Z,5.33
2017-11-21T01:01:16.524Z,5.33
2017-11-21T01:02:16.523Z,5.3
2017-11-21T01:03:16.576Z,5.27
2017-11-21T01:04:16.575Z,5.36
2017-11-21T01:05:16.585Z,5.25
2017-11-21T01:06:16.612Z,5.28
2017-11-21T01:07:16.614Z,5.36
2017-11-21T01:09:16.648Z,5.25
2017-11-21T01:10:16.675Z,5.33
2017-11-21T01:11:16.677Z,5.3
2017-11-21T01:12:16.696Z,5.28
2017-11-21T01:13:16.463Z,5.3
2017-11-21T01:14:16.734Z,5.24
2017-11-21T01:15:16.478Z,5.25
2017-11-21T01:16:16.763Z,5.22
2017-11-21T01:18:16.791Z,5.35
2017-11-21T01:19:16.814Z,5.35
2017-11-21T01:20:16.600Z,5.33
2017-11-21T01:21:16.868Z,5.22
2017-11-21T01:22:31.509Z,5.22
2017-11-21T01:23:16.870Z,5.24
2017-11-21T01:24:31.538Z,5.21
2017-11-21T01:25:16.898Z,5.31
2017-11-21T01:26:16.928Z,5.21
2017-11-21T01:27:16.937Z,5.18
2017-11-21T01:28:16.961Z,5.27
2017-11-21T01:29:16.994Z,5.27
2017-11-21T01:30:17.087Z,5.12
2017-11-21T01:31:16.992Z,5.2
2017-11-21T01:32:16.758Z,5.18
2017-11-21T01:33:17.033Z,5.13
2017-11-21T01:34:31.715Z,5.15
2017-11-21T01:35:17.072Z,5.1
2017-11-21T01:36:16.817Z,5.15
2017-11-21T01:37:17.100Z,5.07
2017-11-21T01:38:17.125Z,5.13
2017-11-21T01:41:17.162Z,5.12
2017-11-21T01:42:17.183Z,5.18
2017-11-21T01:43:17.214Z,5.15
2017-11-21T01:44:17.221Z,5.15
2017-11-21T01:45:17.230Z,5.22
2017-11-21T01:46:16.984Z,5.21
2017-11-21T01:47:17.043Z,5.12
2017-11-21T01:48:17.030Z,5.13
2017-11-21T01:49:17.291Z,5.15
2017-11-21T01:50:17.046Z,5.13
2017-11-21T01:51:17.331Z,5.18
2017-11-21T01:52:17.344Z,5.18
2017-11-21T01:53:17.349Z,5.18
2017-11-21T01:54:17.377Z,5.15
2017-11-21T01:55:17.401Z,5.1
2017-11-21T01:56:32.062Z,5.13
2017-11-21T01:57:17.412Z,5.13
2017-11-21T01:58:32.106Z,5.17
2017-11-21T01:59:17.204Z,5.15
2017-11-21T02:00:17.491Z,5.2
2017-11-21T02:01:17.504Z,5.15
2017-11-21T02:02:17.248Z,5.17
2017-11-21T02:03:17.531Z,5.18
2017-11-21T02:04:17.530Z,5.15
2017-11-21T02:05:17.562Z,5.15
2017-11-21T02:06:17.565Z,5.15
2017-11-21T02:07:17.331Z,5.12
2017-11-21T02:08:17.611Z,5.1
2017-11-21T02:09:17.626Z,5.2
2017-11-21T02:10:17.647Z,5.21
2017-11-21T02:11:17.666Z,5.22
2017-11-21T02:12:32.316Z,5.13
2017-11-21T02:13:17.688Z,5.17
2017-11-21T02:14:17.720Z,5.13
2017-11-21T02:16:17.715Z,5.15
2017-11-21T02:17:17.756Z,5.2
2017-11-21T02:18:17.760Z,5.13
2017-11-21T02:19:17.775Z,5.2
2017-11-21T02:20:17.798Z,5.13
2017-11-21T02:22:17.829Z,5.17
2017-11-21T02:23:17.881Z,5.18
2017-11-21T02:24:17.850Z,5.17
2017-11-21T02:25:17.867Z,5.17
2017-11-21T02:26:17.901Z,5.13
2017-11-21T02:27:32.557Z,5.1
2017-11-21T02:28:17.930Z,5.07
2017-11-21T02:29:17.938Z,5
2017-11-21T02:30:17.951Z,5.06
2017-11-21T02:31:17.698Z,5.1
2017-11-21T02:32:18.004Z,5.03
2017-11-21T02:34:18.031Z,5.1
2017-11-21T02:35:18.028Z,5.04
2017-11-21T02:36:18.056Z,5.04
2017-11-21T02:37:18.068Z,5.07
2017-11-21T02:38:18.102Z,5.03
2017-11-21T02:39:32.758Z,5.07
2017-11-21T02:40:18.126Z,5.17
2017-11-21T02:42:17.898Z,5.12
2017-11-21T02:43:18.188Z,5.2
2017-11-21T02:44:18.181Z,5.17
2017-11-21T02:45:18.223Z,5.15
2017-11-21T02:46:18.236Z,5.13
2017-11-21T02:47:18.222Z,5.2
2017-11-21T02:48:18.236Z,5.15
2017-11-21T02:49:18.255Z,5.21
2017-11-21T02:50:18.292Z,5.21
2017-11-21T02:51:18.276Z,5.2
2017-11-21T02:52:18.308Z,5.18
2017-11-21T02:53:18.329Z,5.15
2017-11-21T02:54:18.082Z,5.13
2017-11-21T02:55:18.360Z,5.17
2017-11-21T02:56:18.359Z,5.17
2017-11-21T02:57:18.400Z,5.21
2017-11-21T02:58:18.411Z,5.2
2017-11-21T02:59:33.092Z,5.15
2017-11-21T03:00:18.428Z,5.15
2017-11-21T03:01:18.177Z,5.13
2017-11-21T03:02:18.468Z,5.06
2017-11-21T03:03:18.481Z,5.06
2017-11-21T03:04:18.516Z,5.13
2017-11-21T03:05:18.250Z,5.12
2017-11-21T03:06:18.527Z,5.03
2017-11-21T03:07:33.210Z,5.07
2017-11-21T03:08:18.587Z,5.1
2017-11-21T03:09:18.597Z,5.07
2017-11-21T03:10:18.592Z,5.04
2017-11-21T03:11:18.368Z,5.07
2017-11-21T03:13:18.618Z,5.06
2017-11-21T03:14:18.670Z,5.04
2017-11-21T03:15:33.326Z,5.1
2017-11-21T03:16:18.423Z,5.1
2017-11-21T03:18:18.725Z,5.07
2017-11-21T03:19:18.738Z,5.09
2017-11-21T03:20:18.747Z,5.15
2017-11-21T03:21:18.776Z,5.07
2017-11-21T03:22:18.767Z,5.03
2017-11-21T03:23:18.803Z,5.07
2017-11-21T03:24:18.819Z,5.07
2017-11-21T03:25:18.840Z,5.18
2017-11-21T03:26:18.590Z,5.17
2017-11-21T03:27:18.873Z,5.13
2017-11-21T03:28:18.863Z,5.15
2017-11-21T03:29:18.917Z,5.15
2017-11-21T03:30:33.576Z,5.09
2017-11-21T03:31:33.592Z,5.15
2017-11-21T03:32:18.951Z,5.17
2017-11-21T03:33:18.695Z,5.15
2017-11-21T03:34:18.988Z,5.12
2017-11-21T03:35:18.983Z,5.18
2017-11-21T03:36:19.033Z,5.13
2017-11-21T03:37:19.015Z,5.18
2017-11-21T03:38:19.047Z,5.13
2017-11-21T03:39:19.050Z,5.09
2017-11-21T03:40:19.102Z,5.12
2017-11-21T03:41:19.084Z,5.15
2017-11-21T03:42:19.109Z,5.15
2017-11-21T03:43:19.131Z,5.17
2017-11-21T03:44:19.142Z,5.17
2017-11-21T03:45:19.167Z,5.17
2017-11-21T03:46:19.180Z,5.1
2017-11-21T03:47:33.845Z,5.12
2017-11-21T03:48:19.216Z,5.18
2017-11-21T03:49:19.236Z,5.1
2017-11-21T03:50:18.958Z,5.17
2017-11-21T03:51:19.267Z,5.13
2017-11-21T03:53:19.309Z,5.07
2017-11-21T03:54:19.307Z,5.13
2017-11-21T03:55:19.326Z,5.15
2017-11-21T03:56:19.308Z,5.1
2017-11-21T03:57:19.339Z,5.06
2017-11-21T03:58:34.039Z,5.06
2017-11-21T03:59:19.392Z,5.04
2017-11-21T04:00:19.415Z,5.03
2017-11-21T04:01:19.401Z,5.04
2017-11-21T04:02:34.085Z,5.13
2017-11-21T04:03:19.453Z,5.09
2017-11-21T04:04:19.462Z,5.1
2017-11-21T04:05:19.206Z,5.06
2017-11-21T04:06:19.499Z,5.13
2017-11-21T04:07:19.253Z,5.1
2017-11-21T04:08:19.283Z,5.09
2017-11-21T04:09:19.556Z,5.06
2017-11-21T04:10:33.958Z,5.03
2017-11-21T04:11:19.581Z,5.04
2017-11-21T04:12:19.584Z,5.02
2017-11-21T04:13:19.599Z,5.06
2017-11-21T04:14:19.626Z,5.02
2017-11-21T04:15:19.639Z,5.04
2017-11-21T04:16:19.645Z,5
2017-11-21T04:17:19.674Z,5.06
2017-11-21T04:18:19.688Z,5.04
2017-11-21T04:19:19.804Z,5.07
2017-11-21T04:20:19.704Z,4.97
2017-11-21T04:21:19.740Z,4.97
2017-11-21T04:22:19.771Z,4.91
2017-11-21T04:23:19.746Z,5.04
2017-11-21T04:24:19.781Z,5.04
2017-11-21T04:25:19.794Z,5.04
2017-11-21T04:26:19.922Z,5.02
2017-11-21T04:28:19.839Z,5.1
2017-11-21T04:29:19.860Z,5.12
2017-11-21T04:30:19.865Z,5.07
2017-11-21T04:31:19.896Z,5.09
2017-11-21T04:32:19.903Z,5.03
2017-11-21T04:33:19.941Z,4.99
2017-11-21T04:34:34.590Z,5.04
2017-11-21T04:35:19.954Z,5.09
2017-11-21T04:36:34.635Z,5.09
2017-11-21T04:37:19.993Z,5.13
2017-11-21T04:38:20.010Z,5.07
2017-11-21T04:39:20.013Z,5.12
2017-11-21T04:40:20.025Z,5.09
2017-11-21T04:41:20.026Z,5.2
2017-11-21T04:42:20.105Z,5.2
2017-11-21T04:43:20.081Z,5.15
2017-11-21T04:44:20.119Z,5.13
2017-11-21T04:45:19.849Z,5.15
2017-11-21T04:46:20.138Z,5.15
2017-11-21T04:48:20.235Z,5.13
2017-11-21T04:49:20.175Z,5.15
2017-11-21T04:50:34.863Z,5.13
2017-11-21T04:51:20.192Z,5.15
2017-11-21T04:52:19.971Z,5.1
2017-11-21T04:53:34.938Z,5.15
2017-11-21T04:54:20.274Z,5.12
2017-11-21T04:55:20.023Z,5.15
2017-11-21T04:56:20.302Z,5.15
2017-11-21T04:57:20.333Z,5.07
2017-11-21T04:58:20.314Z,5.15
2017-11-21T04:59:20.071Z,5.17
2017-11-21T05:00:20.373Z,5.13
2017-11-21T05:01:20.380Z,5.13
2017-11-21T05:02:20.384Z,5.12
2017-11-21T05:03:20.403Z,5.1
2017-11-21T05:04:20.411Z,5.1
2017-11-21T05:05:20.471Z,5.12
2017-11-21T05:06:35.120Z,5.12
2017-11-21T05:07:20.478Z,5.13
2017-11-21T05:09:20.499Z,5.15
2017-11-21T05:10:20.530Z,5.1
2017-11-21T05:11:20.539Z,5.06
2017-11-21T05:12:20.556Z,5.17
2017-11-21T05:14:20.577Z,5.1
2017-11-21T05:15:20.617Z,5.15
2017-11-21T05:16:20.614Z,5.15
2017-11-21T05:17:35.285Z,5.13
2017-11-21T05:18:20.651Z,5.12
2017-11-21T05:19:20.648Z,5.03
2017-11-21T05:20:35.347Z,5.07
2017-11-21T05:21:35.082Z,5.04
2017-11-21T05:22:35.365Z,5.04
2017-11-21T05:23:20.756Z,5.07
2017-11-21T05:24:35.419Z,5.07
2017-11-21T05:25:20.749Z,5.09
2017-11-21T05:26:20.787Z,5.02
2017-11-21T05:27:20.782Z,5.09
2017-11-21T05:28:20.796Z,5.15
2017-11-21T05:29:20.545Z,5.1
2017-11-21T05:30:20.832Z,5.07
2017-11-21T05:31:35.249Z,5.1
2017-11-21T05:32:20.873Z,5.1
2017-11-21T05:34:20.920Z,5
2017-11-21T05:35:20.925Z,5.07
2017-11-21T05:36:20.932Z,5.06
2017-11-21T05:37:35.364Z,5.09
2017-11-21T05:38:20.961Z,4.99
2017-11-21T05:39:20.987Z,5.15
2017-11-21T05:40:20.995Z,5.18
2017-11-21T05:41:21.012Z,5.2
2017-11-21T05:42:21.045Z,5.1
2017-11-21T05:43:21.047Z,5.06
2017-11-21T05:44:20.817Z,5.06
2017-11-21T05:46:21.090Z,5.13
2017-11-21T05:47:21.106Z,5.06
2017-11-21T05:48:21.105Z,5.15
2017-11-21T05:49:20.893Z,5.07
2017-11-21T05:50:21.153Z,4.97
2017-11-21T05:51:21.157Z,5.02
2017-11-21T05:52:21.205Z,5.06
2017-11-21T05:53:21.198Z,5.02
2017-11-21T05:54:21.223Z,5.03
2017-11-21T05:55:21.249Z,5.07
2017-11-21T05:56:21.007Z,5.07
2017-11-21T05:57:21.282Z,5.03
2017-11-21T05:58:21.389Z,4.97
2017-11-21T05:59:21.293Z,4.99
2017-11-21T06:00:21.324Z,4.99
2017-11-21T06:01:21.334Z,4.97
2017-11-21T06:02:36.006Z,5.02
2017-11-21T06:03:21.379Z,5.03
2017-11-21T06:04:21.396Z,5.09
2017-11-21T06:05:21.149Z,5.03
2017-11-21T06:06:21.425Z,5.03
2017-11-21T06:07:21.430Z,5.1
2017-11-21T06:08:20.929Z,5
2017-11-21T06:09:36.117Z,5.1
2017-11-21T06:10:21.478Z,5.03
2017-11-21T06:11:21.511Z,5.04
2017-11-21T06:12:21.515Z,5.02
2017-11-21T06:13:21.503Z,5.07
2017-11-21T06:14:21.540Z,5.1
2017-11-21T06:15:21.568Z,5.04
2017-11-21T06:16:21.571Z,5.06
2017-11-21T06:17:21.580Z,5.12
2017-11-21T06:18:21.605Z,5.1
2017-11-21T06:19:21.633Z,5.04
2017-11-21T06:20:21.627Z,5.1
2017-11-21T06:21:21.677Z,5.15
2017-11-21T06:22:21.683Z,5.12
2017-11-21T06:23:21.675Z,5.17
2017-11-21T06:25:36.382Z,5.12
2017-11-21T06:26:21.741Z,5.13
2017-11-21T06:27:21.752Z,5.2
2017-11-21T06:28:21.488Z,5.13
2017-11-21T06:29:21.787Z,5.15
2017-11-21T06:30:21.785Z,5.21
2017-11-21T06:31:21.813Z,5.22
2017-11-21T06:32:21.817Z,5.17
2017-11-21T06:33:21.816Z,5.24
2017-11-21T06:34:21.866Z,5.17
2017-11-21T06:35:21.855Z,5.22
2017-11-21T06:36:21.890Z,5.17
2017-11-21T06:37:21.932Z,5.18
2017-11-21T06:38:21.949Z,5.25
2017-11-21T06:39:21.950Z,5.22
2017-11-21T06:40:21.944Z,5.15
2017-11-21T06:41:36.691Z,5.13
2017-11-21T06:42:22.015Z,5.2
2017-11-21T06:43:22.006Z,5.13
2017-11-21T06:44:22.022Z,5.1
2017-11-21T06:45:36.679Z,5.18
2017-11-21T06:47:22.056Z,5.09
2017-11-21T06:48:22.098Z,5.13
2017-11-21T06:49:22.099Z,5.06
2017-11-21T06:50:22.100Z,5.13
2017-11-21T06:51:22.142Z,5.13
2017-11-21T06:52:22.139Z,5.1
2017-11-21T06:53:22.172Z,5.1
2017-11-21T06:54:22.188Z,5.13
2017-11-21T06:55:22.199Z,5.09
2017-11-21T06:56:22.209Z,5.09
2017-11-21T06:57:36.897Z,5.15
2017-11-21T06:58:22.260Z,5.15
2017-11-21T06:59:22.271Z,5.17
2017-11-21T07:00:22.276Z,5.17
2017-11-21T07:02:22.326Z,5.21
2017-11-21T07:03:22.315Z,5.2
2017-11-21T07:04:22.334Z,5.15
2017-11-21T07:05:22.369Z,5.2
2017-11-21T07:06:22.372Z,5.22
2017-11-21T07:07:22.393Z,5.21
2017-11-21T07:08:22.409Z,5.18
2017-11-21T07:09:22.417Z,5.12
2017-11-21T07:10:22.452Z,5.27
2017-11-21T07:11:22.443Z,5.27
2017-11-21T07:12:37.119Z,5.3
2017-11-21T07:13:22.482Z,5.28
2017-11-21T07:14:22.504Z,5.27
2017-11-21T07:15:22.513Z,5.25
2017-11-21T07:17:22.533Z,5.24
2017-11-21T07:18:22.527Z,5.33
2017-11-21T07:19:22.546Z,5.28
2017-11-21T07:21:22.585Z,5.35
2017-11-21T07:22:22.583Z,5.33
2017-11-21T07:23:22.623Z,5.4
2017-11-21T07:24:22.640Z,5.38
2017-11-21T07:25:22.635Z,5.36
2017-11-21T07:26:22.647Z,5.36
2017-11-21T07:27:22.695Z,5.33
2017-11-21T07:28:37.365Z,5.33
2017-11-21T07:30:22.730Z,5.39
2017-11-21T07:31:22.735Z,5.3
2017-11-21T07:32:22.762Z,5.22
2017-11-21T07:33:22.774Z,5.33
2017-11-21T07:34:22.792Z,5.28
2017-11-21T07:35:22.802Z,5.33
2017-11-21T07:36:22.808Z,5.36
2017-11-21T07:37:37.600Z,5.38
2017-11-21T07:38:22.596Z,5.43
2017-11-21T07:39:22.871Z,5.43
2017-11-21T07:40:22.877Z,5.48
2017-11-21T07:41:22.911Z,5.42
2017-11-21T07:42:22.913Z,5.39
2017-11-21T07:43:22.932Z,5.42
2017-11-21T07:44:37.610Z,5.48
2017-11-21T07:45:22.977Z,5.49
2017-11-21T07:46:22.717Z,5.4
2017-11-21T07:47:23.004Z,5.49
2017-11-21T07:48:22.995Z,5.51
2017-11-21T07:49:23.041Z,5.53
2017-11-21T07:50:37.711Z,5.46
2017-11-21T07:51:23.052Z,5.48
2017-11-21T07:52:23.081Z,5.56
2017-11-21T07:53:23.099Z,5.49
2017-11-21T07:54:23.112Z,5.46
2017-11-21T07:55:23.117Z,5.43
2017-11-21T07:56:23.133Z,5.51
2017-11-21T07:57:23.144Z,5.54
2017-11-21T07:58:23.174Z,5.51
2017-11-21T07:59:23.286Z,5.57
2017-11-21T08:00:37.716Z,5.57
2017-11-21T08:01:23.212Z,5.48
2017-11-21T08:02:37.911Z,5.51
2017-11-21T08:05:23.038Z,5.45
2017-11-21T08:06:23.298Z,5.56
2017-11-21T08:07:23.329Z,5.51
2017-11-21T08:08:23.342Z,5.54
2017-11-21T08:10:23.375Z,5.49
2017-11-21T08:11:23.376Z,5.46
2017-11-21T08:12:23.397Z,5.49
2017-11-21T08:13:23.418Z,5.51
2017-11-21T08:14:23.441Z,5.57
2017-11-21T08:15:23.453Z,5.6
2017-11-21T08:16:38.136Z,5.49
2017-11-21T08:18:23.496Z,5.51
2017-11-21T08:19:23.539Z,5.56
2017-11-21T08:20:23.527Z,5.48
2017-11-21T08:21:23.551Z,5.53
2017-11-21T08:22:23.299Z,5.64
2017-11-21T08:23:23.326Z,5.68
2017-11-21T08:24:23.592Z,5.63
2017-11-21T08:25:23.614Z,5.64
2017-11-21T08:26:23.621Z,5.64
2017-11-21T08:27:38.322Z,5.63
2017-11-21T08:28:23.647Z,5.6
2017-11-21T08:29:23.663Z,5.72
2017-11-21T08:30:23.695Z,5.76
2017-11-21T08:31:38.381Z,5.71
2017-11-21T08:32:38.398Z,5.74
2017-11-21T08:33:23.740Z,5.68
2017-11-21T08:34:23.751Z,5.64
2017-11-21T08:35:23.781Z,5.72
2017-11-21T08:36:23.800Z,5.75
2017-11-21T08:37:24.203Z,5.65
2017-11-21T08:38:23.831Z,5.76
2017-11-21T08:39:23.836Z,5.76
2017-11-21T08:40:23.859Z,5.76
2017-11-21T08:42:23.896Z,5.79
2017-11-21T08:43:23.919Z,5.72
2017-11-21T08:44:23.924Z,5.76
2017-11-21T08:45:23.941Z,5.61
2017-11-21T08:46:23.970Z,5.65
2017-11-21T08:47:38.630Z,5.64
2017-11-21T08:48:23.975Z,5.72
2017-11-21T08:49:38.668Z,5.75
2017-11-21T08:50:24.023Z,5.68
2017-11-21T08:51:24.042Z,5.68
2017-11-21T08:52:23.795Z,5.75
2017-11-21T08:53:24.067Z,5.75
2017-11-21T08:55:24.109Z,5.76
2017-11-21T08:56:24.098Z,5.74
2017-11-21T08:57:24.139Z,5.72
2017-11-21T09:00:24.171Z,5.72
2017-11-21T09:01:24.192Z,5.72
2017-11-21T09:02:24.198Z,5.74
2017-11-21T09:03:23.984Z,5.82
2017-11-21T09:04:24.242Z,5.83
2017-11-21T09:05:24.256Z,5.83
2017-11-21T09:06:24.287Z,5.86
2017-11-21T09:07:24.299Z,5.85
2017-11-21T09:08:24.323Z,5.81
2017-11-21T09:09:24.428Z,5.96
2017-11-21T09:10:39.006Z,5.94
2017-11-21T09:11:24.359Z,5.99
2017-11-21T09:12:24.373Z,5.97
2017-11-21T09:13:39.050Z,5.9
2017-11-21T09:14:24.427Z,5.86
2017-11-21T09:15:24.428Z,5.91
2017-11-21T09:16:24.444Z,5.91
2017-11-21T09:17:24.552Z,5.9
2017-11-21T09:18:24.489Z,5.83
2017-11-21T09:19:39.152Z,5.9
2017-11-21T09:20:24.497Z,5.79
2017-11-21T09:21:24.515Z,5.94
2017-11-21T09:22:24.549Z,5.99
2017-11-21T09:23:24.548Z,5.96
2017-11-21T09:24:24.311Z,5.97
2017-11-21T09:25:24.599Z,5.93
2017-11-21T09:26:24.592Z,5.96
2017-11-21T09:27:24.629Z,5.94
2017-11-21T09:28:24.661Z,5.94
2017-11-21T09:29:24.401Z,5.99
2017-11-21T09:30:24.673Z,5.96
2017-11-21T09:31:24.699Z,6.04
2017-11-21T09:32:24.189Z,6.06
2017-11-21T09:33:24.751Z,5.99
2017-11-21T09:34:24.745Z,6.01
2017-11-21T09:35:39.514Z,6.06
2017-11-21T09:36:24.766Z,6.01
2017-11-21T09:37:24.790Z,6.04
2017-11-21T09:39:24.813Z,6.06
2017-11-21T09:40:24.832Z,6.11
2017-11-21T09:41:24.849Z,6.03
2017-11-21T09:44:24.881Z,6.28
2017-11-21T09:45:24.916Z,6.25
2017-11-21T09:46:24.671Z,6.25
2017-11-21T09:47:39.626Z,6.19
2017-11-21T09:48:24.961Z,6.25
2017-11-21T09:49:24.980Z,6.25
2017-11-21T09:50:24.991Z,6.25
2017-11-21T09:51:39.688Z,6.33
2017-11-21T09:52:25.044Z,6.3
2017-11-21T09:53:25.059Z,6.21
2017-11-21T09:54:25.070Z,6.27
2017-11-21T09:55:24.810Z,6.27
2017-11-21T09:56:25.084Z,6.19
2017-11-21T09:57:25.116Z,6.22
2017-11-21T09:58:25.119Z,6.17
2017-11-21T09:59:25.145Z,6.15
2017-11-21T10:00:25.152Z,6.14
2017-11-21T10:01:24.930Z,6.06
2017-11-21T10:02:25.188Z,6.11
2017-11-21T10:04:25.214Z,6.12
2017-11-21T10:05:25.248Z,6.08
2017-11-21T10:06:25.265Z,6.08
2017-11-21T10:07:39.954Z,6.19
2017-11-21T10:08:25.042Z,6.25
2017-11-21T10:09:25.327Z,6.21
2017-11-21T10:10:25.071Z,6.28
2017-11-21T10:11:25.342Z,6.36
2017-11-21T10:12:25.365Z,6.3
2017-11-21T10:13:25.365Z,6.28
2017-11-21T10:14:25.397Z,6.38
2017-11-21T10:15:25.414Z,6.4
2017-11-21T10:16:25.450Z,6.41
2017-11-21T10:17:25.443Z,6.43
2017-11-21T10:18:25.472Z,6.46
2017-11-21T10:19:25.482Z,6.48
2017-11-21T10:20:25.492Z,6.58
2017-11-21T10:21:40.186Z,6.54
2017-11-21T10:22:40.201Z,6.58
2017-11-21T10:23:25.299Z,6.56
2017-11-21T10:24:25.547Z,6.51
2017-11-21T10:25:25.581Z,6.64
2017-11-21T10:26:25.578Z,6.56
2017-11-21T10:27:25.361Z,6.62
2017-11-21T10:28:25.652Z,6.66
2017-11-21T10:29:25.382Z,6.7
2017-11-21T10:30:25.660Z,6.71
2017-11-21T10:31:25.698Z,6.76
2017-11-21T10:32:25.754Z,6.77
2017-11-21T10:34:25.477Z,6.69
2017-11-21T10:35:25.741Z,6.74
2017-11-21T10:36:25.770Z,6.7
2017-11-21T10:37:25.766Z,6.71
2017-11-21T10:39:40.496Z,6.69
2017-11-21T10:41:25.584Z,6.61
2017-11-21T10:42:25.602Z,6.56
2017-11-21T10:43:25.649Z,6.62
2017-11-21T10:44:25.933Z,6.74
2017-11-21T10:45:25.928Z,6.76
2017-11-21T10:46:25.950Z,6.73
2017-11-21T10:47:25.959Z,6.7
2017-11-21T10:48:25.979Z,6.67
2017-11-21T10:49:26.036Z,6.69
2017-11-21T10:50:26.031Z,6.7
2017-11-21T10:51:26.027Z,6.64
2017-11-21T10:53:25.826Z,6.71
2017-11-21T10:54:40.732Z,6.71
2017-11-21T10:55:26.121Z,6.69
2017-11-21T10:56:26.109Z,6.77
2017-11-21T10:57:26.122Z,6.73
2017-11-21T10:58:26.169Z,6.77
2017-11-21T10:59:26.166Z,6.76
2017-11-21T11:00:26.180Z,6.64
2017-11-21T11:01:40.867Z,6.62
2017-11-21T11:02:26.230Z,6.59
2017-11-21T11:03:26.222Z,6.59
2017-11-21T11:04:26.264Z,6.55
2017-11-21T11:05:40.923Z,6.67
2017-11-21T11:06:26.276Z,6.69
2017-11-21T11:07:26.045Z,6.79
2017-11-21T11:08:26.060Z,6.7
2017-11-21T11:10:41.020Z,6.66
2017-11-21T11:11:26.367Z,6.74
2017-11-21T11:12:26.121Z,6.85
2017-11-21T11:14:26.415Z,6.73
2017-11-21T11:15:26.414Z,6.77
2017-11-21T11:16:26.453Z,6.79
2017-11-21T11:17:26.485Z,6.8
2017-11-21T11:19:26.478Z,6.92
2017-11-21T11:20:26.522Z,6.85
2017-11-21T11:22:26.539Z,6.8
2017-11-21T11:23:26.324Z,6.77
2017-11-21T11:25:26.619Z,6.87
2017-11-21T11:26:41.300Z,6.89
2017-11-21T11:27:26.638Z,6.91
2017-11-21T11:28:26.652Z,6.92
2017-11-21T11:29:26.671Z,6.92
2017-11-21T11:30:26.672Z,6.92
2017-11-21T11:31:26.684Z,6.87
2017-11-21T11:32:26.729Z,6.8
2017-11-21T11:33:26.493Z,6.77
2017-11-21T11:34:41.412Z,6.81
2017-11-21T11:35:26.512Z,6.95
2017-11-21T11:36:26.788Z,6.97
2017-11-21T11:38:26.824Z,6.98
2017-11-21T11:39:26.315Z,7.06
2017-11-21T11:40:26.858Z,6.98
2017-11-21T11:41:26.859Z,7.03
2017-11-21T11:42:41.564Z,6.95
2017-11-21T11:44:26.943Z,6.95
2017-11-21T11:45:26.982Z,7.09
2017-11-21T11:46:27.039Z,7.07
2017-11-21T11:47:26.996Z,7.06
2017-11-21T11:48:26.741Z,7.05
2017-11-21T11:49:27.036Z,7.12
2017-11-21T11:50:27.007Z,7.13
2017-11-21T11:51:27.095Z,7.13
2017-11-21T11:52:26.832Z,7.12
2017-11-21T11:53:41.742Z,7.31
2017-11-21T11:54:27.105Z,7.23
2017-11-21T11:55:27.133Z,7.23
2017-11-21T11:56:27.132Z,7.27
2017-11-21T12:00:27.226Z,7.03
2017-11-21T12:01:27.227Z,6.98
2017-11-21T12:02:27.223Z,6.95
2017-11-21T12:03:41.935Z,6.97
2017-11-21T12:04:27.034Z,6.92
2017-11-21T12:05:27.034Z,6.94
2017-11-21T12:06:27.329Z,6.94
2017-11-21T12:07:27.318Z,6.98
2017-11-21T12:08:27.348Z,6.94
2017-11-21T12:09:27.387Z,6.97
2017-11-21T12:10:27.358Z,6.98
2017-11-21T12:11:27.409Z,7.02
2017-11-21T12:12:27.415Z,7.09
2017-11-21T12:13:27.423Z,7.12
2017-11-21T12:15:27.560Z,7.17
2017-11-21T12:16:27.485Z,7.16
2017-11-21T12:17:27.499Z,7.09
2017-11-21T12:18:27.490Z,7.06
2017-11-21T12:19:42.209Z,7.1
2017-11-21T12:20:27.378Z,7.06
2017-11-21T12:21:27.562Z,7.05
2017-11-21T12:22:42.241Z,7.12
2017-11-21T12:23:27.617Z,7.05
2017-11-21T12:24:27.619Z,6.94
2017-11-21T12:25:27.648Z,6.98
2017-11-21T12:26:27.379Z,6.87
2017-11-21T12:28:27.435Z,6.98
2017-11-21T12:29:42.365Z,6.8
2017-11-21T12:30:27.711Z,6.87
2017-11-21T12:31:27.725Z,6.97
2017-11-21T12:32:27.754Z,6.76
2017-11-21T12:33:27.772Z,6.73
2017-11-21T12:34:27.809Z,6.8
2017-11-21T12:36:27.819Z,6.73
2017-11-21T12:37:27.818Z,6.7
2017-11-21T12:39:27.896Z,6.69
2017-11-21T12:40:27.873Z,6.79
2017-11-21T12:41:27.998Z,6.73
2017-11-21T12:43:27.925Z,6.8
2017-11-21T12:44:27.965Z,6.73
2017-11-21T12:45:42.653Z,6.71
2017-11-21T12:46:28.001Z,6.79
2017-11-21T12:47:27.990Z,6.87
2017-11-21T12:48:28.050Z,6.8
2017-11-21T12:49:28.038Z,6.85
2017-11-21T12:50:28.063Z,6.7
2017-11-21T12:51:28.105Z,6.76
2017-11-21T12:52:28.121Z,6.73
2017-11-21T12:53:42.776Z,6.76
2017-11-21T12:54:28.128Z,6.73
2017-11-21T12:55:42.810Z,6.71
2017-11-21T12:56:28.172Z,6.67
2017-11-21T12:57:28.205Z,6.76
2017-11-21T12:58:28.204Z,6.73
2017-11-21T12:59:28.241Z,6.77
2017-11-21T13:00:28.241Z,6.67
2017-11-21T13:01:42.923Z,6.71
2017-11-21T13:02:28.289Z,6.8
2017-11-21T13:03:28.032Z,6.77
2017-11-21T13:04:42.980Z,6.76
2017-11-21T13:05:28.343Z,6.71
2017-11-21T13:06:28.336Z,6.7
2017-11-21T13:07:28.346Z,6.74
2017-11-21T13:08:28.386Z,6.7
2017-11-21T13:09:28.373Z,6.77
2017-11-21T13:10:43.066Z,6.73
2017-11-21T13:11:28.453Z,6.81
2017-11-21T13:12:28.421Z,6.76
2017-11-21T13:13:28.312Z,6.74
2017-11-21T13:14:28.593Z,6.77
2017-11-21T13:15:28.476Z,6.84
2017-11-21T13:16:28.275Z,6.81
2017-11-21T13:17:42.953Z,6.81
2017-11-21T13:18:28.562Z,6.91
2017-11-21T13:19:28.313Z,6.87
2017-11-21T13:20:28.575Z,6.95
2017-11-21T13:21:28.577Z,6.94
2017-11-21T13:22:28.607Z,6.94
2017-11-21T13:23:28.637Z,6.95
2017-11-21T13:24:28.669Z,6.98
2017-11-21T13:25:28.669Z,6.97
2017-11-21T13:26:28.682Z,6.92
2017-11-21T13:27:28.718Z,6.92
2017-11-21T13:28:28.725Z,6.95
2017-11-21T13:29:28.498Z,6.91
2017-11-21T13:31:28.507Z,6.89
2017-11-21T13:33:28.808Z,6.81
2017-11-21T13:34:28.800Z,6.76
2017-11-21T13:35:28.849Z,6.74
2017-11-21T13:36:28.869Z,6.74
2017-11-21T13:37:28.872Z,6.7
2017-11-21T13:38:43.551Z,6.71
2017-11-21T13:39:28.935Z,6.73
2017-11-21T13:40:28.902Z,6.7
2017-11-21T13:41:28.937Z,6.71
2017-11-21T13:42:28.961Z,6.7
2017-11-21T13:43:28.707Z,6.67
2017-11-21T13:44:28.989Z,6.71
2017-11-21T13:45:29.030Z,6.77
2017-11-21T13:47:29.066Z,6.71
2017-11-21T13:48:29.043Z,6.76
2017-11-21T13:50:29.089Z,6.73
2017-11-21T13:51:29.111Z,6.77
2017-11-21T13:52:29.152Z,6.74
2017-11-21T13:53:29.149Z,6.87
2017-11-21T13:54:28.913Z,6.8
2017-11-21T13:55:29.205Z,6.79
2017-11-21T13:56:29.227Z,6.74
2017-11-21T13:57:29.248Z,6.77
2017-11-21T13:58:43.883Z,6.67
2017-11-21T13:59:29.276Z,6.81
2017-11-21T14:00:28.993Z,6.73
2017-11-21T14:01:29.027Z,6.69
2017-11-21T14:02:29.298Z,6.7
2017-11-21T14:03:29.349Z,6.7
2017-11-21T14:04:44.012Z,6.7
2017-11-21T14:05:29.327Z,6.76
2017-11-21T14:06:29.358Z,6.71
2017-11-21T14:07:29.404Z,6.79
2017-11-21T14:08:29.408Z,6.71
2017-11-21T14:09:29.422Z,6.74
2017-11-21T14:10:29.180Z,6.8
2017-11-21T14:11:29.449Z,6.84
2017-11-21T14:12:29.470Z,6.85
2017-11-21T14:13:29.483Z,6.81
2017-11-21T14:14:29.513Z,6.79
2017-11-21T14:15:44.181Z,6.73
2017-11-21T14:16:29.532Z,6.73
2017-11-21T14:17:29.295Z,6.77
2017-11-21T14:18:29.550Z,6.73
2017-11-21T14:20:44.292Z,6.92
2017-11-21T14:21:29.668Z,6.81
2017-11-21T14:22:29.634Z,6.77
2017-11-21T14:23:29.658Z,6.84